Time;durP1;ratioP1;P1;durP2;ratioP2;P2;SDS_P1;SDS_P2;PMS_P1;PMS_P2;Temp;Humidity;BMP_temperature;BMP_pressure;BME280_temperature;BME280_humidity;BME280_pressure;Samples;Min_cycle;Max_cycle;Signal;HPM_P1;HPM_P2
2023/08/12 00:00:12;;;;;;;8.23;5.00;;;21.00;99.90;;;;;;5059598;28;20033;-64
2023/08/12 00:02:38;;;;;;;;;;;21.00;99.90;;;;;;5042070;28;20392;-64
2023/08/12 00:05:04;;;;;;;9.60;5.75;;;20.90;99.90;;;;;;5048815;28;20406;-64
2023/08/12 00:07:30;;;;;;;10.18;6.03;;;20.90;99.90;;;;;;5052948;28;20041;-64
2023/08/12 00:09:56;;;;;;;9.50;6.50;;;20.90;99.90;;;;;;5034226;28;20132;-64
2023/08/12 00:12:22;;;;;;;10.68;6.97;;;20.90;99.90;;;;;;5058765;28;20040;-64
2023/08/12 00:14:47;;;;;;;10.48;6.30;;;20.90;99.90;;;;;;5058962;28;20154;-64
2023/08/12 00:17:13;;;;;;;10.52;6.75;;;20.80;99.90;;;;;;5071393;28;20513;-64
2023/08/12 00:19:39;;;;;;;12.05;6.70;;;20.80;99.90;;;;;;5070395;28;20043;-64
2023/08/12 00:22:04;;;;;;;11.57;7.53;;;20.80;99.90;;;;;;5063157;28;20437;-64
2023/08/12 00:24:30;;;;;;;9.75;7.05;;;20.80;99.90;;;;;;5038592;28;20044;-64
2023/08/12 00:26:56;;;;;;;10.98;7.13;;;20.80;99.90;;;;;;5076958;22;20043;-64
2023/08/12 00:29:21;;;;;;;8.80;6.63;;;20.70;99.90;;;;;;5056034;28;20033;-64
2023/08/12 00:31:47;;;;;;;10.32;7.15;;;20.70;99.90;;;;;;5050124;28;20039;-64
2023/08/12 00:34:13;;;;;;;11.43;6.85;;;20.70;99.90;;;;;;5060074;28;20116;-64
2023/08/12 00:36:38;;;;;;;13.23;7.78;;;20.70;99.90;;;;;;5054882;28;20071;-64
2023/08/12 00:39:04;;;;;;;11.88;7.60;;;20.70;99.90;;;;;;5059351;28;20456;-64
2023/08/12 00:41:30;;;;;;;12.23;7.88;;;20.70;99.90;;;;;;5061061;28;20040;-64
2023/08/12 00:43:56;;;;;;;12.45;7.72;;;20.70;99.90;;;;;;5057726;28;20044;-64
2023/08/12 00:46:22;;;;;;;13.23;8.43;;;20.70;99.90;;;;;;5054906;28;20111;-64
2023/08/12 00:48:48;;;;;;;15.70;8.73;;;20.70;99.90;;;;;;5055277;28;20116;-64
2023/08/12 00:51:18;;;;;;;14.05;8.52;;;20.60;99.90;;;;;;5064694;28;20041;-64
2023/08/12 00:53:46;;;;;;;16.95;8.93;;;20.60;99.90;;;;;;5056215;28;20047;-64
2023/08/12 00:56:12;;;;;;;14.25;8.85;;;20.60;99.90;;;;;;5057880;28;20036;-64
2023/08/12 00:58:39;;;;;;;13.82;9.30;;;20.60;99.90;;;;;;5053917;28;20118;-64
2023/08/12 01:01:05;;;;;;;12.73;8.80;;;20.60;99.90;;;;;;5061804;28;20095;-64
2023/08/12 01:03:30;;;;;;;12.38;8.88;;;20.50;99.90;;;;;;5054759;28;20041;-64
2023/08/12 01:05:57;;;;;;;15.15;9.40;;;20.50;99.90;;;;;;5060436;28;20430;-64
2023/08/12 01:08:28;;;;;;;16.88;9.40;;;20.50;99.90;;;;;;5058614;28;20047;-64
2023/08/12 01:11:02;;;;;;;11.77;8.35;;;20.50;99.90;;;;;;5055684;28;20082;-64
2023/08/12 01:13:55;;;;;;;13.07;9.50;;;20.40;99.90;;;;;;5063594;28;20029;-64
2023/08/12 01:16:22;;;;;;;17.00;9.40;;;20.50;99.90;;;;;;5057672;28;20367;-64
2023/08/12 01:18:49;;;;;;;14.45;9.02;;;20.50;99.90;;;;;;5053913;28;20475;-64
2023/08/12 01:21:17;;;;;;;13.65;8.77;;;20.50;99.90;;;;;;5056992;28;20068;-64
2023/08/12 01:23:44;;;;;;;15.18;9.75;;;20.40;99.90;;;;;;5069705;28;20040;-64
2023/08/12 01:26:10;;;;;;;14.15;9.45;;;20.40;99.90;;;;;;5068505;28;20029;-65
2023/08/12 01:28:35;;;;;;;14.05;9.50;;;20.40;99.90;;;;;;5052968;28;20048;-65
2023/08/12 01:31:31;;;;;;;13.63;9.32;;;20.40;99.90;;;;;;5055467;28;20051;-64
2023/08/12 01:34:15;;;;;;;16.67;9.90;;;20.40;99.90;;;;;;5052375;28;20174;-64
2023/08/12 01:36:46;;;;;;;12.48;9.05;;;20.40;99.90;;;;;;5062091;28;20098;-65
2023/08/12 01:39:12;;;;;;;14.52;9.82;;;20.40;99.90;;;;;;5054066;28;20037;-65
2023/08/12 01:41:38;;;;;;;15.38;9.40;;;20.40;99.90;;;;;;5054483;28;20083;-65
2023/08/12 01:44:04;;;;;;;17.08;10.73;;;20.30;99.90;;;;;;5059574;28;20075;-64
2023/08/12 01:46:31;;;;;;;14.60;10.50;;;20.30;99.90;;;;;;5056887;28;20078;-65
2023/08/12 01:48:56;;;;;;;16.38;9.82;;;20.30;99.90;;;;;;5060463;28;20040;-64
2023/08/12 01:51:22;;;;;;;15.18;9.98;;;20.30;99.90;;;;;;5063961;28;20035;-64
2023/08/12 01:53:48;;;;;;;16.73;9.68;;;20.30;99.90;;;;;;5064168;28;20440;-64
2023/08/12 01:56:13;;;;;;;15.73;10.68;;;20.30;99.90;;;;;;5053561;28;20470;-65
2023/08/12 01:58:39;;;;;;;15.38;10.15;;;20.30;99.90;;;;;;5056093;28;20060;-64
2023/08/12 02:01:05;;;;;;;16.23;10.15;;;20.30;99.90;;;;;;5050988;28;20040;-65
2023/08/12 02:03:30;;;;;;;12.90;9.02;;;20.20;99.90;;;;;;5057530;28;20087;-64
2023/08/12 02:05:56;;;;;;;14.15;9.98;;;20.20;99.90;;;;;;5071209;28;20032;-65
2023/08/12 02:08:21;;;;;;;11.95;8.68;;;20.20;99.90;;;;;;5053033;28;20041;-65
2023/08/12 02:10:47;;;;;;;13.20;8.20;;;20.20;99.90;;;;;;5057291;28;20032;-65
2023/08/12 02:13:13;;;;;;;13.25;8.68;;;20.20;99.90;;;;;;5052733;28;20087;-65
2023/08/12 02:15:38;;;;;;;15.45;9.07;;;20.20;99.90;;;;;;5060077;28;20040;-64
2023/08/12 02:18:04;;;;;;;13.80;8.75;;;20.20;99.90;;;;;;5054557;28;20041;-64
2023/08/12 02:20:30;;;;;;;14.23;9.43;;;20.20;99.90;;;;;;5056899;28;20040;-65
2023/08/12 02:22:55;;;;;;;13.05;9.35;;;20.10;99.90;;;;;;5054046;28;20562;-65
2023/08/12 02:25:21;;;;;;;15.43;10.05;;;20.20;99.90;;;;;;5065723;28;20036;-64
2023/08/12 02:27:47;;;;;;;18.25;10.27;;;20.10;99.90;;;;;;5052622;28;20079;-65
2023/08/12 02:30:12;;;;;;;16.10;9.55;;;20.20;99.90;;;;;;5053132;28;20037;-65
2023/08/12 02:32:38;;;;;;;15.25;10.27;;;20.20;99.90;;;;;;5051236;28;20049;-64
2023/08/12 02:35:04;;;;;;;15.60;10.10;;;20.20;99.90;;;;;;5065542;28;20048;-65
2023/08/12 02:37:29;;;;;;;15.60;9.48;;;20.20;99.90;;;;;;5059196;28;20041;-64
2023/08/12 02:39:55;;;;;;;15.65;9.18;;;20.20;99.90;;;;;;5052950;28;20510;-65
2023/08/12 02:42:20;;;;;;;16.58;10.15;;;20.20;99.90;;;;;;5053143;28;20037;-65
2023/08/12 02:44:46;;;;;;;19.42;9.93;;;20.20;99.90;;;;;;5059558;28;20059;-64
2023/08/12 02:47:12;;;;;;;16.85;9.63;;;20.20;99.90;;;;;;5072666;28;20060;-65
2023/08/12 02:49:37;;;;;;;14.30;9.90;;;20.20;99.90;;;;;;5060556;28;20503;-65
2023/08/12 02:52:03;;;;;;;14.52;9.60;;;20.20;99.90;;;;;;5053604;28;20036;-65
2023/08/12 02:54:29;;;;;;;16.30;10.32;;;20.20;99.90;;;;;;5055580;28;20028;-64
2023/08/12 02:56:54;;;;;;;16.50;9.75;;;20.20;99.90;;;;;;5054393;28;20063;-65
2023/08/12 02:59:20;;;;;;;16.77;10.30;;;20.20;99.90;;;;;;5052783;28;20186;-65
2023/08/12 03:01:46;;;;;;;15.38;10.65;;;20.20;99.90;;;;;;5049999;28;20044;-65
2023/08/12 03:04:12;;;;;;;17.75;10.50;;;20.10;99.90;;;;;;5059262;28;20040;-65
2023/08/12 03:06:37;;;;;;;15.20;9.55;;;20.20;99.90;;;;;;5062381;28;20040;-65
2023/08/12 03:09:03;;;;;;;15.48;10.02;;;20.20;99.90;;;;;;5056615;28;20479;-65
2023/08/12 03:11:29;;;;;;;13.60;9.70;;;20.10;99.90;;;;;;5051829;28;20444;-64
2023/08/12 03:13:54;;;;;;;16.30;9.48;;;20.20;99.90;;;;;;5059852;28;20035;-64
2023/08/12 03:16:20;;;;;;;15.35;10.43;;;20.20;99.90;;;;;;5067733;28;20032;-65
2023/08/12 03:18:45;;;;;;;23.17;10.98;;;20.10;99.90;;;;;;5052248;28;20029;-65
2023/08/12 03:21:11;;;;;;;14.18;8.73;;;20.10;99.90;;;;;;5051286;28;20098;-65
2023/08/12 03:23:38;;;;;;;14.13;9.60;;;20.10;99.90;;;;;;5065562;28;20389;-65
2023/08/12 03:26:03;;;;;;;14.82;10.00;;;20.10;99.90;;;;;;5052789;28;20453;-65
2023/08/12 03:28:30;;;;;;;12.20;9.20;;;20.00;99.90;;;;;;5051099;28;20044;-65
2023/08/12 03:30:56;;;;;;;12.30;8.82;;;20.00;99.90;;;;;;5058403;28;20115;-64
2023/08/12 03:33:22;;;;;;;12.38;8.75;;;20.00;99.90;;;;;;5056363;28;20458;-65
2023/08/12 03:35:48;;;;;;;11.10;8.48;;;20.00;99.90;;;;;;5068263;28;20038;-65
2023/08/12 03:38:14;;;;;;;13.07;9.38;;;20.00;99.90;;;;;;5055558;28;20522;-64
2023/08/12 03:40:40;;;;;;;14.52;9.40;;;19.90;99.90;;;;;;5071466;28;20036;-65
2023/08/12 03:43:06;;;;;;;13.23;8.30;;;19.90;99.90;;;;;;5059102;28;20116;-65
2023/08/12 03:45:33;;;;;;;11.13;7.95;;;19.90;99.90;;;;;;5069687;28;20119;-65
2023/08/12 03:47:58;;;;;;;11.02;8.27;;;19.90;99.90;;;;;;5071910;28;20490;-64
2023/08/12 03:50:24;;;;;;;12.82;8.18;;;19.90;99.90;;;;;;5071669;28;20093;-65
2023/08/12 03:52:49;;;;;;;13.25;9.27;;;19.80;99.90;;;;;;5057208;28;20047;-65
2023/08/12 03:55:15;;;;;;;14.35;9.15;;;19.80;99.90;;;;;;5056415;28;20068;-65
2023/08/12 03:57:41;;;;;;;14.45;9.75;;;19.80;99.90;;;;;;5062978;28;20045;-64
2023/08/12 04:00:08;;;;;;;13.52;9.45;;;19.80;99.90;;;;;;5051310;28;20041;-65
2023/08/12 04:02:34;;;;;;;14.73;9.75;;;19.80;99.90;;;;;;5057609;28;20052;-65
2023/08/12 04:05:00;;;;;;;12.98;9.63;;;19.80;99.90;;;;;;5068647;28;20048;-65
2023/08/12 04:07:26;;;;;;;17.63;9.63;;;19.80;99.90;;;;;;5062204;28;20049;-65
2023/08/12 04:09:52;;;;;;;14.73;10.32;;;19.80;99.90;;;;;;5054718;28;20050;-65
2023/08/12 04:12:18;;;;;;;14.63;10.60;;;19.80;99.90;;;;;;5060209;28;20111;-64
2023/08/12 04:14:43;;;;;;;12.85;10.00;;;19.80;99.90;;;;;;5062968;28;20039;-65
2023/08/12 04:17:09;;;;;;;11.63;8.57;;;19.80;99.90;;;;;;5049757;28;20045;-64
2023/08/12 04:19:35;;;;;;;14.65;9.68;;;19.80;99.90;;;;;;5064212;28;20086;-65
2023/08/12 04:22:00;;;;;;;13.85;10.48;;;19.80;99.90;;;;;;5059045;28;20525;-64
2023/08/12 04:24:26;;;;;;;18.48;11.20;;;19.80;99.90;;;;;;5056491;28;20069;-64
2023/08/12 04:26:51;;;;;;;17.50;10.55;;;19.80;99.90;;;;;;5065395;28;20031;-64
2023/08/12 04:29:17;;;;;;;17.70;10.73;;;19.80;99.90;;;;;;5051290;28;20091;-65
2023/08/12 04:31:43;;;;;;;16.98;10.77;;;19.80;99.90;;;;;;5050447;28;20045;-65
2023/08/12 04:34:08;;;;;;;16.27;11.18;;;19.70;99.90;;;;;;5049560;28;20072;-65
2023/08/12 04:36:34;;;;;;;16.15;10.82;;;19.70;99.90;;;;;;5042980;28;20124;-64
2023/08/12 04:38:59;;;;;;;16.60;10.60;;;19.70;99.90;;;;;;5044558;28;20103;-65
2023/08/12 04:41:25;;;;;;;14.02;9.90;;;19.70;99.90;;;;;;5055601;28;20445;-65
2023/08/12 04:43:51;;;;;;;17.88;10.52;;;19.80;99.90;;;;;;5067750;28;20041;-65
2023/08/12 04:46:17;;;;;;;17.05;10.70;;;19.80;99.90;;;;;;5048361;28;20497;-64
2023/08/12 04:48:43;;;;;;;16.45;10.77;;;19.80;99.90;;;;;;5054917;28;20041;-65
2023/08/12 04:51:09;;;;;;;16.85;10.77;;;19.80;99.90;;;;;;5050371;28;20128;-64
2023/08/12 04:53:34;;;;;;;17.98;11.00;;;19.80;99.90;;;;;;5050413;28;20040;-65
2023/08/12 04:56:00;;;;;;;14.82;11.10;;;19.70;99.90;;;;;;5065777;28;20452;-65
2023/08/12 04:58:25;;;;;;;15.35;10.85;;;19.80;99.90;;;;;;5049516;28;20099;-65
2023/08/12 05:00:54;;;;;;;15.82;11.32;;;19.70;99.90;;;;;;5050221;28;20082;-65
2023/08/12 05:03:20;;;;;;;20.30;12.02;;;19.70;99.90;;;;;;5054843;28;20107;-65
2023/08/12 05:05:51;;;;;;;18.65;12.50;;;19.80;99.90;;;;;;5048083;28;20589;-65
2023/08/12 05:08:16;;;;;;;18.98;11.73;;;19.80;99.90;;;;;;5050461;28;20405;-65
2023/08/12 05:10:42;;;;;;;20.00;12.32;;;19.80;99.90;;;;;;5055824;28;20049;-65
2023/08/12 05:13:08;;;;;;;16.92;11.40;;;19.80;99.90;;;;;;5057653;28;20044;-65
2023/08/12 05:15:36;;;;;;;18.00;12.82;;;19.80;99.90;;;;;;5050368;28;20044;-65
2023/08/12 05:18:02;;;;;;;18.67;12.65;;;19.80;99.90;;;;;;5062551;28;20517;-65
2023/08/12 05:20:28;;;;;;;17.88;11.48;;;19.80;99.90;;;;;;5050989;28;20029;-65
2023/08/12 05:22:53;;;;;;;21.00;12.55;;;19.80;99.90;;;;;;5058934;28;20115;-66
2023/08/12 05:25:19;;;;;;;21.08;13.80;;;19.80;99.90;;;;;;5056924;28;20032;-65
2023/08/12 05:27:44;;;;;;;20.65;13.68;;;19.80;99.90;;;;;;5058286;28;20037;-65
2023/08/12 05:30:10;;;;;;;22.00;13.68;;;19.80;99.90;;;;;;5056114;28;20056;-65
2023/08/12 05:32:36;;;;;;;23.00;13.63;;;19.90;99.90;;;;;;5048973;28;20044;-65
2023/08/12 05:35:02;;;;;;;22.98;14.30;;;19.90;99.90;;;;;;5062168;28;20045;-65
2023/08/12 05:37:27;;;;;;;24.77;15.65;;;19.90;99.90;;;;;;5056562;28;20080;-65
2023/08/12 05:39:53;;;;;;;25.88;15.57;;;20.00;99.90;;;;;;5062617;28;20394;-65
2023/08/12 05:42:18;;;;;;;23.95;15.73;;;20.10;99.90;;;;;;5055385;28;20037;-65
2023/08/12 05:44:44;;;;;;;24.73;15.73;;;20.10;99.90;;;;;;5055178;28;20044;-65
2023/08/12 05:47:10;;;;;;;30.38;16.92;;;20.20;99.90;;;;;;5057434;28;20450;-65
2023/08/12 05:49:35;;;;;;;27.25;17.60;;;20.20;99.90;;;;;;5053351;28;20128;-65
2023/08/12 05:52:01;;;;;;;24.92;16.67;;;20.20;99.90;;;;;;5054184;28;20041;-65
2023/08/12 05:54:27;;;;;;;26.42;17.13;;;20.20;99.90;;;;;;5051481;28;20029;-65
2023/08/12 05:56:52;;;;;;;27.60;17.95;;;20.20;99.90;;;;;;5069900;28;20087;-65
2023/08/12 05:59:18;;;;;;;29.48;18.38;;;20.30;99.90;;;;;;5066382;28;20033;-65
2023/08/12 06:01:43;;;;;;;26.45;18.42;;;20.30;99.90;;;;;;5053875;28;20100;-65
2023/08/12 06:04:09;;;;;;;29.90;18.85;;;20.40;99.90;;;;;;5061479;28;20035;-65
2023/08/12 06:06:34;;;;;;;31.05;19.08;;;20.40;99.90;;;;;;5059253;28;20039;-65
2023/08/12 06:09:00;;;;;;;32.03;21.10;;;20.40;99.90;;;;;;5054334;28;20068;-65
2023/08/12 06:11:26;;;;;;;30.05;20.30;;;20.60;99.90;;;;;;5043573;28;20055;-69
2023/08/12 06:13:51;;;;;;;30.00;19.88;;;20.70;99.90;;;;;;5055118;28;20556;-68
2023/08/12 06:16:17;;;;;;;35.75;21.17;;;20.70;99.90;;;;;;5053050;28;20045;-69
2023/08/12 06:18:42;;;;;;;33.72;21.80;;;20.80;99.90;;;;;;5054302;28;20036;-69
2023/08/12 06:21:08;;;;;;;33.80;22.13;;;20.80;99.90;;;;;;5053359;28;20116;-68
2023/08/12 06:23:34;;;;;;;35.53;21.38;;;20.90;99.90;;;;;;5058548;28;20032;-69
2023/08/12 06:25:59;;;;;;;35.55;22.08;;;20.80;99.90;;;;;;5079425;22;20040;-69
2023/08/12 06:28:25;;;;;;;36.92;22.45;;;20.90;99.90;;;;;;5067454;28;20474;-69
2023/08/12 06:30:50;;;;;;;33.33;22.52;;;20.80;99.90;;;;;;5072320;28;20500;-70
2023/08/12 06:33:16;;;;;;;34.55;22.38;;;20.80;99.90;;;;;;5066677;28;20115;-70
2023/08/12 06:35:42;;;;;;;35.72;21.80;;;20.80;99.90;;;;;;5065702;28;20119;-70
2023/08/12 06:38:09;;;;;;;35.80;21.88;;;20.80;99.90;;;;;;5071899;28;20033;-70
2023/08/12 06:40:35;;;;;;;31.58;22.02;;;20.90;99.90;;;;;;5071083;28;20543;-70
2023/08/12 06:43:01;;;;;;;34.22;23.10;;;20.90;99.90;;;;;;5067758;28;20048;-70
2023/08/12 06:45:27;;;;;;;38.40;23.30;;;20.90;99.90;;;;;;5070557;28;20379;-70
2023/08/12 06:47:52;;;;;;;34.75;23.27;;;20.90;99.90;;;;;;5070669;28;20028;-70
2023/08/12 06:50:18;;;;;;;38.90;23.48;;;21.00;99.90;;;;;;5072301;28;20032;-70
2023/08/12 06:52:43;;;;;;;40.90;22.42;;;20.90;99.90;;;;;;5072177;28;20041;-70
2023/08/12 06:55:09;;;;;;;35.88;23.08;;;20.90;99.90;;;;;;5068268;28;20044;-70
2023/08/12 06:57:35;;;;;;;35.03;22.05;;;20.90;99.90;;;;;;5070501;28;20039;-70
2023/08/12 07:00:00;;;;;;;35.90;24.02;;;21.00;99.90;;;;;;5072849;28;20158;-70
2023/08/12 07:02:26;;;;;;;36.58;23.05;;;20.90;99.90;;;;;;5069696;28;20036;-70
2023/08/12 07:04:51;;;;;;;35.00;23.02;;;20.90;99.90;;;;;;5070870;28;20035;-70
2023/08/12 07:07:17;;;;;;;35.13;23.48;;;20.90;99.90;;;;;;5069013;28;20032;-70
2023/08/12 07:09:43;;;;;;;35.05;21.98;;;20.90;99.90;;;;;;5071859;28;20035;-70
2023/08/12 07:12:09;;;;;;;36.33;23.23;;;20.90;99.90;;;;;;5069307;28;20415;-70
2023/08/12 07:14:35;;;;;;;32.53;21.08;;;20.90;99.90;;;;;;5070351;28;20033;-70
2023/08/12 07:17:01;;;;;;;33.17;21.48;;;20.90;99.90;;;;;;5068120;28;20037;-70
2023/08/12 07:19:26;;;;;;;35.97;22.80;;;20.90;99.90;;;;;;5058401;28;20039;-70
2023/08/12 07:21:52;;;;;;;39.42;22.67;;;20.90;99.90;;;;;;5065202;28;20423;-70
2023/08/12 07:24:18;;;;;;;32.88;22.08;;;20.90;99.90;;;;;;5067689;28;20039;-70
2023/08/12 07:26:43;;;;;;;31.77;21.60;;;20.90;99.90;;;;;;5063023;28;20040;-69
2023/08/12 07:29:09;;;;;;;32.67;21.60;;;20.90;99.90;;;;;;5061892;28;20068;-64
2023/08/12 07:31:35;;;;;;;32.25;20.65;;;20.80;99.90;;;;;;5065936;28;20052;-63
2023/08/12 07:34:00;;;;;;;31.90;19.50;;;20.80;99.90;;;;;;5065301;28;20040;-63
2023/08/12 07:36:26;;;;;;;32.25;21.35;;;20.80;99.90;;;;;;5068273;28;20469;-63
2023/08/12 07:38:51;;;;;;;26.83;20.05;;;20.80;99.90;;;;;;5062153;28;20037;-63
2023/08/12 07:41:17;;;;;;;32.35;20.70;;;20.80;99.90;;;;;;5068238;28;20460;-64
2023/08/12 07:43:43;;;;;;;31.42;20.27;;;20.80;99.90;;;;;;5071175;28;20037;-64
2023/08/12 07:46:08;;;;;;;35.40;22.23;;;20.80;99.90;;;;;;5071735;28;20039;-63
2023/08/12 07:48:34;;;;;;;30.73;19.75;;;20.80;99.90;;;;;;5060803;28;20032;-63
2023/08/12 07:51:00;;;;;;;28.08;19.60;;;20.80;99.90;;;;;;5067907;28;20617;-64
2023/08/12 07:53:26;;;;;;;30.10;18.75;;;20.80;99.90;;;;;;5068920;28;20078;-64
2023/08/12 07:55:52;;;;;;;26.23;16.55;;;20.80;99.90;;;;;;5066902;28;20073;-64
2023/08/12 07:58:18;;;;;;;26.83;18.05;;;20.80;99.90;;;;;;5067374;28;20548;-64
2023/08/12 08:00:43;;;;;;;27.05;17.77;;;20.80;99.90;;;;;;5051677;28;20032;-63
2023/08/12 08:03:09;;;;;;;27.48;17.20;;;20.80;99.90;;;;;;5050126;28;20040;-63
2023/08/12 08:05:34;;;;;;;24.17;16.70;;;20.80;99.90;;;;;;5070214;28;20083;-63
2023/08/12 08:08:00;;;;;;;22.90;16.75;;;20.70;99.90;;;;;;5062494;28;20119;-63
2023/08/12 08:10:26;;;;;;;25.95;17.45;;;20.70;99.90;;;;;;5070553;28;20515;-63
2023/08/12 08:12:51;;;;;;;25.50;16.27;;;20.70;99.90;;;;;;5064149;28;20036;-64
2023/08/12 08:15:17;;;;;;;25.20;16.80;;;20.70;99.90;;;;;;5051648;28;20402;-65
2023/08/12 08:17:43;;;;;;;27.10;16.45;;;20.70;99.90;;;;;;5068494;28;20089;-65
2023/08/12 08:20:10;;;;;;;27.38;16.88;;;20.70;99.90;;;;;;5070007;28;20418;-65
2023/08/12 08:22:36;;;;;;;22.52;16.13;;;20.70;99.90;;;;;;5070511;28;20029;-66
2023/08/12 08:25:02;;;;;;;24.05;15.20;;;20.70;99.90;;;;;;5052265;28;20036;-65
2023/08/12 08:27:27;;;;;;;22.70;14.98;;;20.70;99.90;;;;;;5050948;28;20039;-65
2023/08/12 08:29:53;;;;;;;23.00;14.80;;;20.70;99.90;;;;;;5070896;28;20033;-66
2023/08/12 08:32:19;;;;;;;25.02;14.93;;;20.70;99.90;;;;;;5062159;28;20044;-66
2023/08/12 08:34:44;;;;;;;25.38;15.95;;;20.60;99.90;;;;;;5068858;28;20115;-66
2023/08/12 08:37:10;;;;;;;24.00;16.17;;;20.60;99.90;;;;;;5064576;28;20460;-65
2023/08/12 08:39:35;;;;;;;23.70;15.43;;;20.60;99.90;;;;;;5049712;28;20040;-65
2023/08/12 08:42:04;;;;;;;22.08;14.95;;;20.60;99.90;;;;;;5070953;28;20050;-66
2023/08/12 08:44:32;;;;;;;21.50;15.13;;;20.60;99.90;;;;;;5070804;28;20379;-65
2023/08/12 08:46:59;;;;;;;20.85;14.20;;;20.60;99.90;;;;;;5068724;28;20041;-65
2023/08/12 08:49:25;;;;;;;18.58;13.65;;;20.60;99.90;;;;;;5066680;28;20036;-64
2023/08/12 08:51:52;;;;;;;20.52;13.82;;;20.60;99.90;;;;;;5068913;28;20036;-65
2023/08/12 08:54:19;;;;;;;19.05;13.98;;;20.70;99.90;;;;;;5068835;28;20114;-65
2023/08/12 08:56:45;;;;;;;21.45;14.82;;;20.70;99.90;;;;;;5073241;28;20036;-65
2023/08/12 08:59:10;;;;;;;22.20;15.48;;;20.70;99.90;;;;;;5071302;28;20041;-65
2023/08/12 09:01:37;;;;;;;20.23;14.32;;;20.70;99.90;;;;;;5073962;28;20086;-65
2023/08/12 09:04:05;;;;;;;22.00;15.10;;;20.70;99.90;;;;;;5060834;28;20072;-66
2023/08/12 09:06:31;;;;;;;23.02;14.77;;;20.70;99.90;;;;;;5066007;28;20036;-65
2023/08/12 09:08:58;;;;;;;21.85;15.52;;;20.60;99.90;;;;;;5054688;28;20045;-66
2023/08/12 09:11:24;;;;;;;20.63;15.52;;;20.60;99.90;;;;;;5071193;28;20406;-66
2023/08/12 09:13:49;;;;;;;20.40;15.23;;;20.60;99.90;;;;;;5071966;28;20110;-66
2023/08/12 09:16:15;;;;;;;23.90;15.38;;;20.50;99.90;;;;;;5069987;28;20040;-65
2023/08/12 09:18:44;;;;;;;24.48;14.70;;;20.50;99.90;;;;;;5072599;28;20441;-65
2023/08/12 09:21:10;;;;;;;18.35;14.02;;;20.40;99.90;;;;;;5072511;28;20036;-66
2023/08/12 09:23:42;;;;;;;20.25;14.73;;;20.40;99.90;;;;;;5069706;28;20084;-66
2023/08/12 09:26:15;;;;;;;16.60;13.48;;;20.30;99.90;;;;;;5068951;28;20043;-66
2023/08/12 09:28:42;;;;;;;21.75;14.38;;;20.40;99.90;;;;;;5034982;28;20409;-67
2023/08/12 09:31:08;;;;;;;22.20;17.63;;;20.40;99.90;;;;;;5045048;28;21599;-66
2023/08/12 09:33:39;;;;;;;20.00;13.43;;;20.30;99.90;;;;;;5060247;28;20387;-66
2023/08/12 09:36:04;;;;;;;;;;;20.30;99.90;;;;;;5072958;28;20106;-66
2023/08/12 09:38:31;;;;;;;17.70;12.65;;;20.30;99.90;;;;;;5069682;28;19920;-66
2023/08/12 09:40:57;;;;;;;17.40;13.20;;;20.30;99.90;;;;;;5071928;28;20036;-65
2023/08/12 09:43:28;;;;;;;15.90;11.30;;;20.30;99.90;;;;;;5054605;28;20127;-66
2023/08/12 09:45:58;;;;;;;18.65;11.57;;;20.30;99.90;;;;;;5066564;28;20033;-65
2023/08/12 09:48:25;;;;;;;15.10;10.77;;;20.30;99.90;;;;;;5069200;28;20032;-66
2023/08/12 09:50:53;;;;;;;12.95;7.47;;;20.30;99.90;;;;;;5068453;28;20375;-68
2023/08/12 09:53:18;;;;;;;10.40;5.60;;;20.20;99.90;;;;;;5068897;28;20032;-67
2023/08/12 09:55:47;;;;;;;8.07;5.20;;;20.20;99.90;;;;;;5059170;28;20032;-67
2023/08/12 09:58:17;;;;;;;8.38;5.88;;;20.10;99.90;;;;;;5054734;28;20044;-68
2023/08/12 10:00:45;;;;;;;6.60;5.10;;;20.10;99.90;;;;;;5073175;28;20501;-67
2023/08/12 10:03:14;;;;;;;5.82;5.22;;;20.00;99.90;;;;;;5067486;28;20029;-66
2023/08/12 10:05:40;;;;;;;7.90;4.63;;;20.00;99.90;;;;;;5059150;28;20045;-66
2023/08/12 10:08:07;;;;;;;6.18;4.88;;;20.00;99.90;;;;;;5062437;28;20138;-67
2023/08/12 10:10:35;;;;;;;7.53;4.82;;;20.00;99.90;;;;;;5063863;28;20455;-66
2023/08/12 10:13:01;;;;;;;15.77;4.70;;;20.00;99.90;;;;;;5045653;28;20054;-66
2023/08/12 10:15:27;;;;;;;7.07;4.47;;;20.00;99.90;;;;;;5051429;28;20044;-66
2023/08/12 10:17:55;;;;;;;5.15;4.22;;;20.10;99.90;;;;;;5069294;28;20094;-66
2023/08/12 10:20:23;;;;;;;6.82;5.63;;;20.00;99.90;;;;;;5066263;28;20490;-65
2023/08/12 10:22:49;;;;;;;7.43;4.80;;;20.10;99.90;;;;;;5057403;28;20029;-66
2023/08/12 10:25:17;;;;;;;5.85;4.65;;;20.10;99.90;;;;;;5062636;28;20126;-67
2023/08/12 10:27:43;;;;;;;5.05;4.55;;;20.10;99.90;;;;;;5070237;28;20075;-66
2023/08/12 10:30:10;;;;;;;6.40;4.18;;;20.20;99.90;;;;;;5071981;28;20468;-66
2023/08/12 10:32:36;;;;;;;10.60;4.93;;;20.20;99.90;;;;;;5061960;28;20623;-66
2023/08/12 10:35:03;;;;;;;5.68;4.30;;;20.20;99.90;;;;;;5053521;28;20044;-65
2023/08/12 10:37:32;;;;;;;5.00;3.58;;;20.20;99.90;;;;;;5072792;28;20032;-66
2023/08/12 10:39:59;;;;;;;3.40;2.97;;;20.20;99.90;;;;;;5068426;28;20033;-66
2023/08/12 10:42:47;;;;;;;4.00;3.22;;;20.30;99.90;;;;;;5069206;28;20102;-66
2023/08/12 10:45:14;;;;;;;3.70;3.00;;;20.30;99.90;;;;;;5067225;28;20409;-66
2023/08/12 10:48:23;;;;;;;3.55;3.05;;;20.30;99.90;;;;;;5069276;28;20123;-65
2023/08/12 10:50:52;;;;;;;3.47;2.60;;;20.40;99.90;;;;;;5066748;28;20035;-65
2023/08/12 10:53:29;;;;;;;2.95;2.55;;;20.40;99.90;;;;;;5065707;28;20119;-64
2023/08/12 10:56:00;;;;;;;3.45;2.50;;;20.40;99.90;;;;;;5063198;28;20058;-64
2023/08/12 10:58:45;;;;;;;3.60;2.53;;;20.40;99.90;;;;;;5050744;28;20482;-64
2023/08/12 11:01:16;;;;;;;2.38;1.80;;;20.50;99.90;;;;;;5065231;28;20494;-64
2023/08/12 11:03:43;;;;;;;2.80;1.60;;;20.40;99.90;;;;;;5063163;28;20421;-65
2023/08/12 11:06:10;;;;;;;1.73;1.35;;;20.50;99.90;;;;;;5043519;28;20048;-64
2023/08/12 11:08:36;;;;;;;1.73;1.50;;;20.50;99.90;;;;;;5045052;28;20135;-64
2023/08/12 11:11:02;;;;;;;2.33;1.60;;;20.50;99.90;;;;;;5062827;28;20159;-64
2023/08/12 11:13:28;;;;;;;1.92;1.38;;;20.60;99.90;;;;;;5040464;28;20036;-64
2023/08/12 11:16:10;;;;;;;1.60;1.50;;;20.60;99.90;;;;;;5057638;28;20032;-65
2023/08/12 11:18:36;;;;;;;1.45;1.25;;;20.70;99.90;;;;;;5061374;28;20448;-64
2023/08/12 11:21:03;;;;;;;1.17;1.00;;;20.80;99.90;;;;;;5060840;28;20491;-63
2023/08/12 11:23:29;;;;;;;1.05;0.95;;;20.80;99.90;;;;;;5060095;28;20040;-63
2023/08/12 11:25:55;;;;;;;1.20;0.95;;;20.90;99.90;;;;;;5061888;28;20104;-63
2023/08/12 11:28:21;;;;;;;0.93;0.90;;;20.90;99.90;;;;;;5044456;28;20143;-63
2023/08/12 11:30:46;;;;;;;0.55;0.52;;;20.90;99.90;;;;;;5064686;28;20032;-63
2023/08/12 11:33:12;;;;;;;1.17;0.40;;;20.90;99.90;;;;;;5063240;28;20051;-63
2023/08/12 11:35:38;;;;;;;1.95;0.60;;;20.90;99.90;;;;;;5057579;28;20509;-63
2023/08/12 11:38:05;;;;;;;0.98;0.50;;;20.80;99.90;;;;;;5057792;28;20037;-63
2023/08/12 11:40:30;;;;;;;0.50;0.40;;;20.80;99.90;;;;;;5059552;28;20143;-64
2023/08/12 11:42:56;;;;;;;0.60;0.38;;;20.80;99.90;;;;;;5061561;28;20115;-64
2023/08/12 11:45:24;;;;;;;0.50;0.40;;;20.80;99.90;;;;;;5060192;28;20428;-63
2023/08/12 11:47:52;;;;;;;0.68;0.50;;;20.80;99.90;;;;;;5065853;28;20068;-63
2023/08/12 11:50:20;;;;;;;1.30;0.60;;;20.90;99.90;;;;;;5071861;28;20040;-63
2023/08/12 11:52:46;;;;;;;0.60;0.38;;;20.90;99.90;;;;;;5051798;28;20172;-63
2023/08/12 11:55:12;;;;;;;0.57;0.57;;;21.10;99.90;;;;;;5068949;28;20036;-64
2023/08/12 11:57:41;;;;;;;2.05;0.60;;;21.20;99.90;;;;;;5067535;28;20113;-63
2023/08/12 12:00:13;;;;;;;1.77;0.80;;;21.30;99.90;;;;;;5067965;28;20089;-63
2023/08/12 12:02:48;;;;;;;1.92;0.65;;;21.40;99.90;;;;;;5070123;28;20039;-64
2023/08/12 12:05:14;;;;;;;1.30;0.70;;;21.40;99.90;;;;;;5054926;28;20103;-63
2023/08/12 12:07:40;;;;;;;0.70;0.60;;;21.50;99.90;;;;;;5071439;28;20074;-64
2023/08/12 12:10:07;;;;;;;1.30;1.00;;;21.50;99.90;;;;;;5065166;28;20442;-64
2023/08/12 12:12:36;;;;;;;1.35;1.20;;;21.60;99.90;;;;;;5064961;28;20068;-64
2023/08/12 12:15:03;;;;;;;1.95;1.20;;;21.70;99.90;;;;;;5049829;28;20097;-64
2023/08/12 12:17:29;;;;;;;1.30;1.20;;;21.70;99.90;;;;;;5064280;28;20045;-64
2023/08/12 12:19:57;;;;;;;1.52;1.38;;;21.70;99.90;;;;;;5066019;28;20032;-64
2023/08/12 12:22:31;;;;;;;1.40;1.30;;;21.70;99.90;;;;;;5063380;28;20128;-64
2023/08/12 12:25:07;;;;;;;1.10;0.90;;;21.70;99.90;;;;;;5069139;28;20045;-64
2023/08/12 12:27:33;;;;;;;2.17;1.35;;;21.70;99.90;;;;;;5092693;22;20441;-64
2023/08/12 12:30:00;;;;;;;1.10;1.00;;;21.60;99.90;;;;;;5088027;28;20253;-64
2023/08/12 12:32:26;;;;;;;1.90;0.90;;;21.50;99.90;;;;;;5093386;28;20040;-64